KNTD/NTD METAR and TAF weather

Enter ICAO airport designator
Station Type Date Time Source
KNTD METAR 2020/01/29 18:52 UTC NOAA

KNTD 291852Z 01012G24KT 10SM FEW035 FEW250 20/03 A3009 RMK AO2 SLP190 T02000028 $


Station Type Date Time Source
KNTD Decoded METAR 2020/01/29 18:52 UTC NOAA

NAWCWPNS POINT MUGU, CA, CA, United States (KNTD) 34-07N 119-07W 2M
Jan 29, 2020 - 01:52 PM EST / 2020.01.29 1852 UTC
Wind: from the N (010 degrees) at 14 MPH (12 KT) gusting to 28 MPH (24 KT):0
Visibility: 10 mile(s):0
Sky conditions: mostly clear
Temperature: 68.0 F (20.0 C)
Dew Point: 37.0 F (2.8 C)
Relative Humidity: 31%
Pressure (altimeter): 30.09 in. Hg (1018 hPa)
ob: KNTD 291852Z 01012G24KT 10SM FEW035 FEW250 20/03 A3009 RMK AO2 SLP190 T02000028
cycle: 19

Station Type Date Time Source
KNTD TAF 2020/01/29 15:57 UTC NOAA

TAF KNTD 2915/3015 VRB05KT 9999 FEW040 SCT250 520809 QNH2999INS
TEMPO 2915/2919 03009KT
BECMG 2919/2921 26011KT 9999 SCT250 520809 QNH2997INS
FM300100 VRB05KT 9999 FEW250 QNH2998INS
TEMPO 3009/3015 07011KT T20/2921Z T09/3012Z FS30016

Example: see airport list